sensor_id;sensor_type;location;lat;lon;timestamp;P1;durP1;ratioP1;P2;durP2;ratioP2
15526;SDS011;7865;50.918;4.510;2023-05-20T00:04:22;7.23;;;4.77;;
15526;SDS011;7865;50.918;4.510;2023-05-20T00:09:24;6.63;;;4.50;;
15526;SDS011;7865;50.918;4.510;2023-05-20T00:14:25;6.57;;;5.00;;
15526;SDS011;7865;50.918;4.510;2023-05-20T00:19:26;6.57;;;4.73;;
15526;SDS011;7865;50.918;4.510;2023-05-20T00:24:28;9.30;;;4.90;;
15526;SDS011;7865;50.918;4.510;2023-05-20T00:29:30;10.70;;;4.70;;
15526;SDS011;7865;50.918;4.510;2023-05-20T00:34:31;7.97;;;5.40;;
15526;SDS011;7865;50.918;4.510;2023-05-20T00:39:32;7.17;;;5.07;;
15526;SDS011;7865;50.918;4.510;2023-05-20T00:44:33;6.67;;;4.60;;
15526;SDS011;7865;50.918;4.510;2023-05-20T00:49:35;10.00;;;4.93;;
15526;SDS011;7865;50.918;4.510;2023-05-20T00:54:36;9.50;;;5.27;;
15526;SDS011;7865;50.918;4.510;2023-05-20T00:59:38;10.57;;;4.70;;
15526;SDS011;7865;50.918;4.510;2023-05-20T01:04:40;7.47;;;4.80;;
15526;SDS011;7865;50.918;4.510;2023-05-20T01:09:46;5.63;;;4.13;;
15526;SDS011;7865;50.918;4.510;2023-05-20T01:14:48;8.83;;;4.63;;
15526;SDS011;7865;50.918;4.510;2023-05-20T01:19:56;12.47;;;4.80;;
15526;SDS011;7865;50.918;4.510;2023-05-20T01:24:59;7.53;;;4.43;;
15526;SDS011;7865;50.918;4.510;2023-05-20T01:30:02;10.60;;;4.17;;
15526;SDS011;7865;50.918;4.510;2023-05-20T01:35:04;6.43;;;3.90;;
15526;SDS011;7865;50.918;4.510;2023-05-20T01:40:11;4.60;;;3.77;;
15526;SDS011;7865;50.918;4.510;2023-05-20T01:45:15;5.90;;;4.27;;
15526;SDS011;7865;50.918;4.510;2023-05-20T01:50:17;7.67;;;4.70;;
15526;SDS011;7865;50.918;4.510;2023-05-20T01:55:18;8.03;;;3.97;;
15526;SDS011;7865;50.918;4.510;2023-05-20T02:00:20;8.03;;;4.50;;
15526;SDS011;7865;50.918;4.510;2023-05-20T02:05:22;6.37;;;3.73;;
15526;SDS011;7865;50.918;4.510;2023-05-20T02:10:23;9.73;;;4.23;;
15526;SDS011;7865;50.918;4.510;2023-05-20T02:15:25;6.17;;;3.60;;
15526;SDS011;7865;50.918;4.510;2023-05-20T02:20:26;7.03;;;3.57;;
15526;SDS011;7865;50.918;4.510;2023-05-20T02:25:28;4.47;;;3.40;;
15526;SDS011;7865;50.918;4.510;2023-05-20T02:30:29;9.27;;;3.97;;
15526;SDS011;7865;50.918;4.510;2023-05-20T02:35:30;9.13;;;3.50;;
15526;SDS011;7865;50.918;4.510;2023-05-20T02:40:32;9.57;;;4.37;;
15526;SDS011;7865;50.918;4.510;2023-05-20T02:45:33;7.73;;;3.90;;
15526;SDS011;7865;50.918;4.510;2023-05-20T02:50:37;4.83;;;3.63;;
15526;SDS011;7865;50.918;4.510;2023-05-20T02:55:40;7.07;;;3.80;;
15526;SDS011;7865;50.918;4.510;2023-05-20T03:00:41;7.83;;;3.47;;
15526;SDS011;7865;50.918;4.510;2023-05-20T03:05:43;8.90;;;3.37;;
15526;SDS011;7865;50.918;4.510;2023-05-20T03:10:46;7.70;;;3.33;;
15526;SDS011;7865;50.918;4.510;2023-05-20T03:15:47;7.93;;;3.90;;
15526;SDS011;7865;50.918;4.510;2023-05-20T03:20:49;6.43;;;3.67;;
15526;SDS011;7865;50.918;4.510;2023-05-20T03:25:50;7.40;;;4.30;;
15526;SDS011;7865;50.918;4.510;2023-05-20T03:30:52;6.07;;;4.67;;
15526;SDS011;7865;50.918;4.510;2023-05-20T03:35:53;7.77;;;4.17;;
15526;SDS011;7865;50.918;4.510;2023-05-20T03:40:54;6.20;;;4.07;;
15526;SDS011;7865;50.918;4.510;2023-05-20T03:45:56;11.17;;;4.20;;
15526;SDS011;7865;50.918;4.510;2023-05-20T03:50:57;9.00;;;4.60;;
15526;SDS011;7865;50.918;4.510;2023-05-20T03:55:59;12.97;;;5.23;;
15526;SDS011;7865;50.918;4.510;2023-05-20T04:01:00;7.43;;;4.73;;
15526;SDS011;7865;50.918;4.510;2023-05-20T04:06:04;6.43;;;4.30;;
15526;SDS011;7865;50.918;4.510;2023-05-20T04:11:06;9.97;;;4.53;;
15526;SDS011;7865;50.918;4.510;2023-05-20T04:16:07;10.33;;;4.83;;
15526;SDS011;7865;50.918;4.510;2023-05-20T04:21:08;6.87;;;4.77;;
15526;SDS011;7865;50.918;4.510;2023-05-20T04:26:10;7.63;;;4.63;;
15526;SDS011;7865;50.918;4.510;2023-05-20T04:31:12;12.87;;;5.20;;
15526;SDS011;7865;50.918;4.510;2023-05-20T04:36:15;8.93;;;4.90;;
15526;SDS011;7865;50.918;4.510;2023-05-20T04:41:18;10.17;;;4.93;;
15526;SDS011;7865;50.918;4.510;2023-05-20T04:46:19;12.17;;;5.10;;
15526;SDS011;7865;50.918;4.510;2023-05-20T04:51:21;10.27;;;4.73;;
15526;SDS011;7865;50.918;4.510;2023-05-20T04:56:23;8.53;;;5.03;;
15526;SDS011;7865;50.918;4.510;2023-05-20T05:01:26;9.43;;;4.80;;
15526;SDS011;7865;50.918;4.510;2023-05-20T05:06:28;10.97;;;5.20;;
15526;SDS011;7865;50.918;4.510;2023-05-20T05:11:29;10.80;;;4.80;;
15526;SDS011;7865;50.918;4.510;2023-05-20T05:16:31;12.93;;;5.50;;
15526;SDS011;7865;50.918;4.510;2023-05-20T05:21:32;9.33;;;5.07;;
15526;SDS011;7865;50.918;4.510;2023-05-20T05:26:34;11.00;;;5.50;;
15526;SDS011;7865;50.918;4.510;2023-05-20T05:31:35;7.97;;;5.30;;
15526;SDS011;7865;50.918;4.510;2023-05-20T05:36:37;10.93;;;5.67;;
15526;SDS011;7865;50.918;4.510;2023-05-20T05:41:40;9.33;;;5.43;;
15526;SDS011;7865;50.918;4.510;2023-05-20T05:46:42;7.23;;;4.70;;
15526;SDS011;7865;50.918;4.510;2023-05-20T05:51:44;7.20;;;5.07;;
15526;SDS011;7865;50.918;4.510;2023-05-20T05:56:46;8.10;;;4.53;;
15526;SDS011;7865;50.918;4.510;2023-05-20T06:01:47;9.30;;;4.70;;
15526;SDS011;7865;50.918;4.510;2023-05-20T06:06:49;7.30;;;4.77;;
15526;SDS011;7865;50.918;4.510;2023-05-20T06:11:51;9.70;;;4.63;;
15526;SDS011;7865;50.918;4.510;2023-05-20T06:16:52;10.38;;;4.68;;
15526;SDS011;7865;50.918;4.510;2023-05-20T06:21:55;6.40;;;4.10;;
15526;SDS011;7865;50.918;4.510;2023-05-20T06:26:58;7.03;;;4.53;;
15526;SDS011;7865;50.918;4.510;2023-05-20T06:31:59;9.70;;;4.60;;
15526;SDS011;7865;50.918;4.510;2023-05-20T06:37:01;7.90;;;4.68;;
15526;SDS011;7865;50.918;4.510;2023-05-20T06:42:02;6.60;;;4.25;;
15526;SDS011;7865;50.918;4.510;2023-05-20T06:47:09;5.15;;;4.43;;
15526;SDS011;7865;50.918;4.510;2023-05-20T06:52:11;9.40;;;5.22;;
15526;SDS011;7865;50.918;4.510;2023-05-20T06:57:12;6.70;;;4.53;;
15526;SDS011;7865;50.918;4.510;2023-05-20T07:02:14;5.63;;;4.35;;
15526;SDS011;7865;50.918;4.510;2023-05-20T07:07:16;5.13;;;4.05;;
15526;SDS011;7865;50.918;4.510;2023-05-20T07:12:19;5.60;;;3.95;;
15526;SDS011;7865;50.918;4.510;2023-05-20T07:17:21;8.38;;;4.13;;
15526;SDS011;7865;50.918;4.510;2023-05-20T07:22:22;4.28;;;3.75;;
15526;SDS011;7865;50.918;4.510;2023-05-20T07:27:31;5.78;;;3.88;;
15526;SDS011;7865;50.918;4.510;2023-05-20T07:32:33;3.92;;;3.53;;
15526;SDS011;7865;50.918;4.510;2023-05-20T07:37:34;5.43;;;3.67;;
15526;SDS011;7865;50.918;4.510;2023-05-20T07:42:36;6.35;;;3.35;;
15526;SDS011;7865;50.918;4.510;2023-05-20T07:47:38;7.82;;;3.83;;
15526;SDS011;7865;50.918;4.510;2023-05-20T07:52:40;4.88;;;3.13;;
15526;SDS011;7865;50.918;4.510;2023-05-20T07:58:00;4.72;;;3.65;;
15526;SDS011;7865;50.918;4.510;2023-05-20T08:03:01;4.72;;;3.30;;
15526;SDS011;7865;50.918;4.510;2023-05-20T08:08:12;30.30;;;4.38;;
15526;SDS011;7865;50.918;4.510;2023-05-20T08:13:23;7.53;;;3.17;;
15526;SDS011;7865;50.918;4.510;2023-05-20T08:18:25;5.13;;;3.67;;
15526;SDS011;7865;50.918;4.510;2023-05-20T08:23:27;6.97;;;3.28;;
15526;SDS011;7865;50.918;4.510;2023-05-20T08:28:29;4.65;;;3.03;;
15526;SDS011;7865;50.918;4.510;2023-05-20T08:33:32;7.55;;;3.00;;
15526;SDS011;7865;50.918;4.510;2023-05-20T08:38:34;5.35;;;2.72;;
15526;SDS011;7865;50.918;4.510;2023-05-20T08:43:36;4.25;;;2.75;;
15526;SDS011;7865;50.918;4.510;2023-05-20T08:48:40;4.00;;;2.92;;
15526;SDS011;7865;50.918;4.510;2023-05-20T08:53:41;4.38;;;2.75;;
15526;SDS011;7865;50.918;4.510;2023-05-20T08:58:43;7.63;;;2.67;;
15526;SDS011;7865;50.918;4.510;2023-05-20T09:03:46;8.55;;;2.80;;
15526;SDS011;7865;50.918;4.510;2023-05-20T09:08:48;5.45;;;2.60;;
15526;SDS011;7865;50.918;4.510;2023-05-20T09:13:51;5.22;;;2.40;;
15526;SDS011;7865;50.918;4.510;2023-05-20T09:18:55;5.72;;;2.55;;
15526;SDS011;7865;50.918;4.510;2023-05-20T09:24:00;3.40;;;2.97;;
15526;SDS011;7865;50.918;4.510;2023-05-20T09:29:02;7.30;;;2.47;;
15526;SDS011;7865;50.918;4.510;2023-05-20T09:34:03;4.47;;;2.80;;
15526;SDS011;7865;50.918;4.510;2023-05-20T09:39:04;3.38;;;2.47;;
15526;SDS011;7865;50.918;4.510;2023-05-20T09:44:11;3.10;;;2.28;;
15526;SDS011;7865;50.918;4.510;2023-05-20T09:49:16;4.45;;;2.15;;
15526;SDS011;7865;50.918;4.510;2023-05-20T09:54:18;4.30;;;2.45;;
15526;SDS011;7865;50.918;4.510;2023-05-20T09:59:21;2.30;;;1.95;;
15526;SDS011;7865;50.918;4.510;2023-05-20T10:04:24;3.47;;;2.58;;
15526;SDS011;7865;50.918;4.510;2023-05-20T10:09:31;6.68;;;2.70;;
15526;SDS011;7865;50.918;4.510;2023-05-20T10:20:01;7.97;;;2.75;;
15526;SDS011;7865;50.918;4.510;2023-05-20T10:25:10;3.50;;;2.28;;
15526;SDS011;7865;50.918;4.510;2023-05-20T10:30:16;3.42;;;2.00;;
15526;SDS011;7865;50.918;4.510;2023-05-20T10:35:22;4.88;;;2.13;;
15526;SDS011;7865;50.918;4.510;2023-05-20T10:40:27;3.08;;;2.30;;
15526;SDS011;7865;50.918;4.510;2023-05-20T10:45:29;3.95;;;2.10;;
15526;SDS011;7865;50.918;4.510;2023-05-20T10:50:33;3.85;;;2.38;;
15526;SDS011;7865;50.918;4.510;2023-05-20T10:55:39;3.88;;;2.38;;
15526;SDS011;7865;50.918;4.510;2023-05-20T11:00:47;6.53;;;2.65;;
15526;SDS011;7865;50.918;4.510;2023-05-20T11:05:51;2.53;;;2.30;;
15526;SDS011;7865;50.918;4.510;2023-05-20T11:10:54;7.15;;;2.80;;
15526;SDS011;7865;50.918;4.510;2023-05-20T11:15:57;3.95;;;2.78;;
15526;SDS011;7865;50.918;4.510;2023-05-20T11:20:59;5.20;;;2.55;;
15526;SDS011;7865;50.918;4.510;2023-05-20T11:26:02;4.28;;;2.45;;
15526;SDS011;7865;50.918;4.510;2023-05-20T11:31:03;5.25;;;2.60;;
15526;SDS011;7865;50.918;4.510;2023-05-20T11:36:05;5.13;;;2.78;;
15526;SDS011;7865;50.918;4.510;2023-05-20T11:41:27;4.50;;;2.60;;
15526;SDS011;7865;50.918;4.510;2023-05-20T11:46:29;4.40;;;2.33;;
15526;SDS011;7865;50.918;4.510;2023-05-20T11:51:31;4.00;;;2.70;;
15526;SDS011;7865;50.918;4.510;2023-05-20T11:56:33;6.25;;;3.00;;
15526;SDS011;7865;50.918;4.510;2023-05-20T12:01:38;3.83;;;2.60;;
15526;SDS011;7865;50.918;4.510;2023-05-20T12:06:43;3.50;;;2.20;;
15526;SDS011;7865;50.918;4.510;2023-05-20T12:11:44;4.72;;;2.75;;
15526;SDS011;7865;50.918;4.510;2023-05-20T12:16:46;3.50;;;2.38;;
15526;SDS011;7865;50.918;4.510;2023-05-20T12:21:47;7.50;;;2.92;;
15526;SDS011;7865;50.918;4.510;2023-05-20T12:26:49;2.60;;;2.40;;
15526;SDS011;7865;50.918;4.510;2023-05-20T12:31:50;4.57;;;2.90;;
15526;SDS011;7865;50.918;4.510;2023-05-20T12:36:52;5.05;;;2.38;;
15526;SDS011;7865;50.918;4.510;2023-05-20T12:41:53;8.88;;;2.40;;
15526;SDS011;7865;50.918;4.510;2023-05-20T12:46:55;3.72;;;2.28;;
15526;SDS011;7865;50.918;4.510;2023-05-20T12:52:05;5.85;;;2.67;;
15526;SDS011;7865;50.918;4.510;2023-05-20T12:57:19;3.67;;;2.25;;
15526;SDS011;7865;50.918;4.510;2023-05-20T13:02:21;4.22;;;2.25;;
15526;SDS011;7865;50.918;4.510;2023-05-20T13:07:23;4.38;;;2.40;;
15526;SDS011;7865;50.918;4.510;2023-05-20T13:12:26;7.03;;;2.40;;
15526;SDS011;7865;50.918;4.510;2023-05-20T13:17:28;2.72;;;2.13;;
15526;SDS011;7865;50.918;4.510;2023-05-20T13:22:29;7.22;;;2.20;;
15526;SDS011;7865;50.918;4.510;2023-05-20T13:27:30;6.93;;;2.47;;
15526;SDS011;7865;50.918;4.510;2023-05-20T13:32:31;2.42;;;2.05;;
15526;SDS011;7865;50.918;4.510;2023-05-20T13:37:33;2.83;;;2.10;;
15526;SDS011;7865;50.918;4.510;2023-05-20T13:42:34;8.60;;;2.75;;
15526;SDS011;7865;50.918;4.510;2023-05-20T13:47:36;6.05;;;2.60;;
15526;SDS011;7865;50.918;4.510;2023-05-20T13:52:37;6.47;;;2.15;;
15526;SDS011;7865;50.918;4.510;2023-05-20T13:57:39;7.53;;;3.25;;
15526;SDS011;7865;50.918;4.510;2023-05-20T14:02:40;4.07;;;2.20;;
15526;SDS011;7865;50.918;4.510;2023-05-20T14:07:42;2.40;;;2.10;;
15526;SDS011;7865;50.918;4.510;2023-05-20T14:12:43;5.20;;;2.20;;
15526;SDS011;7865;50.918;4.510;2023-05-20T14:17:47;5.40;;;2.20;;
15526;SDS011;7865;50.918;4.510;2023-05-20T14:22:50;3.58;;;2.33;;
15526;SDS011;7865;50.918;4.510;2023-05-20T14:27:52;6.85;;;2.08;;
15526;SDS011;7865;50.918;4.510;2023-05-20T14:32:53;3.35;;;2.60;;
15526;SDS011;7865;50.918;4.510;2023-05-20T14:37:54;5.35;;;2.40;;
15526;SDS011;7865;50.918;4.510;2023-05-20T14:42:56;3.15;;;2.17;;
15526;SDS011;7865;50.918;4.510;2023-05-20T14:47:57;3.45;;;2.33;;
15526;SDS011;7865;50.918;4.510;2023-05-20T14:52:59;5.38;;;2.67;;
15526;SDS011;7865;50.918;4.510;2023-05-20T14:58:00;4.15;;;2.33;;
15526;SDS011;7865;50.918;4.510;2023-05-20T15:03:02;3.63;;;2.45;;
15526;SDS011;7865;50.918;4.510;2023-05-20T15:08:04;3.42;;;2.10;;
15526;SDS011;7865;50.918;4.510;2023-05-20T15:13:06;4.65;;;2.10;;
15526;SDS011;7865;50.918;4.510;2023-05-20T15:18:07;3.13;;;2.17;;
15526;SDS011;7865;50.918;4.510;2023-05-20T15:23:08;3.90;;;2.17;;
15526;SDS011;7865;50.918;4.510;2023-05-20T15:28:10;3.05;;;2.20;;
15526;SDS011;7865;50.918;4.510;2023-05-20T15:33:11;2.95;;;2.15;;
15526;SDS011;7865;50.918;4.510;2023-05-20T15:38:13;4.20;;;2.20;;
15526;SDS011;7865;50.918;4.510;2023-05-20T15:43:15;5.32;;;2.38;;
15526;SDS011;7865;50.918;4.510;2023-05-20T15:48:17;2.88;;;2.60;;
15526;SDS011;7865;50.918;4.510;2023-05-20T15:53:18;5.28;;;2.60;;
15526;SDS011;7865;50.918;4.510;2023-05-20T15:58:20;5.30;;;2.80;;
15526;SDS011;7865;50.918;4.510;2023-05-20T16:03:21;4.20;;;2.92;;
15526;SDS011;7865;50.918;4.510;2023-05-20T16:08:23;15.60;;;3.17;;
15526;SDS011;7865;50.918;4.510;2023-05-20T16:13:24;3.35;;;2.15;;
15526;SDS011;7865;50.918;4.510;2023-05-20T16:18:26;3.08;;;2.72;;
15526;SDS011;7865;50.918;4.510;2023-05-20T16:23:30;3.25;;;2.58;;
15526;SDS011;7865;50.918;4.510;2023-05-20T16:28:31;7.13;;;3.00;;
15526;SDS011;7865;50.918;4.510;2023-05-20T16:33:33;6.78;;;2.95;;
15526;SDS011;7865;50.918;4.510;2023-05-20T16:38:34;3.80;;;3.22;;
15526;SDS011;7865;50.918;4.510;2023-05-20T16:43:36;4.32;;;3.13;;
15526;SDS011;7865;50.918;4.510;2023-05-20T16:48:38;4.53;;;3.38;;
15526;SDS011;7865;50.918;4.510;2023-05-20T16:53:39;4.72;;;3.55;;
15526;SDS011;7865;50.918;4.510;2023-05-20T16:58:40;7.05;;;3.67;;
15526;SDS011;7865;50.918;4.510;2023-05-20T17:03:42;6.40;;;3.65;;
15526;SDS011;7865;50.918;4.510;2023-05-20T17:08:43;5.75;;;3.75;;
15526;SDS011;7865;50.918;4.510;2023-05-20T17:13:44;3.50;;;3.20;;
15526;SDS011;7865;50.918;4.510;2023-05-20T17:18:46;3.03;;;2.72;;
15526;SDS011;7865;50.918;4.510;2023-05-20T17:23:48;3.92;;;2.47;;
15526;SDS011;7865;50.918;4.510;2023-05-20T17:28:50;5.25;;;3.00;;
15526;SDS011;7865;50.918;4.510;2023-05-20T17:33:51;4.05;;;2.75;;
15526;SDS011;7865;50.918;4.510;2023-05-20T17:38:52;6.45;;;2.75;;
15526;SDS011;7865;50.918;4.510;2023-05-20T17:43:54;4.32;;;2.78;;
15526;SDS011;7865;50.918;4.510;2023-05-20T17:48:55;6.97;;;3.78;;
15526;SDS011;7865;50.918;4.510;2023-05-20T17:53:57;2.78;;;2.55;;
15526;SDS011;7865;50.918;4.510;2023-05-20T17:58:58;4.10;;;2.60;;
15526;SDS011;7865;50.918;4.510;2023-05-20T18:04:00;3.05;;;2.72;;
15526;SDS011;7865;50.918;4.510;2023-05-20T18:09:05;3.67;;;2.75;;
15526;SDS011;7865;50.918;4.510;2023-05-20T18:14:06;2.83;;;2.53;;
15526;SDS011;7865;50.918;4.510;2023-05-20T18:19:08;4.43;;;2.92;;
15526;SDS011;7865;50.918;4.510;2023-05-20T18:24:09;2.67;;;2.20;;
15526;SDS011;7865;50.918;4.510;2023-05-20T18:29:11;4.13;;;2.40;;
15526;SDS011;7865;50.918;4.510;2023-05-20T18:34:12;2.38;;;2.17;;
15526;SDS011;7865;50.918;4.510;2023-05-20T18:39:16;3.97;;;2.38;;
15526;SDS011;7865;50.918;4.510;2023-05-20T18:44:20;3.30;;;2.38;;
15526;SDS011;7865;50.918;4.510;2023-05-20T18:49:21;3.20;;;2.40;;
15526;SDS011;7865;50.918;4.510;2023-05-20T18:54:23;4.90;;;2.72;;
15526;SDS011;7865;50.918;4.510;2023-05-20T18:59:24;5.88;;;2.55;;
15526;SDS011;7865;50.918;4.510;2023-05-20T19:04:26;5.43;;;2.60;;
15526;SDS011;7865;50.918;4.510;2023-05-20T19:09:27;3.75;;;2.30;;
15526;SDS011;7865;50.918;4.510;2023-05-20T19:14:29;2.97;;;2.67;;
15526;SDS011;7865;50.918;4.510;2023-05-20T19:19:30;3.83;;;2.67;;
15526;SDS011;7865;50.918;4.510;2023-05-20T19:24:32;4.22;;;2.15;;
15526;SDS011;7865;50.918;4.510;2023-05-20T19:29:34;4.13;;;2.85;;
15526;SDS011;7865;50.918;4.510;2023-05-20T19:34:35;4.70;;;2.55;;
15526;SDS011;7865;50.918;4.510;2023-05-20T19:39:36;3.83;;;2.63;;
15526;SDS011;7865;50.918;4.510;2023-05-20T19:44:38;4.90;;;3.30;;
15526;SDS011;7865;50.918;4.510;2023-05-20T19:49:39;4.25;;;3.05;;
15526;SDS011;7865;50.918;4.510;2023-05-20T19:54:40;4.28;;;2.85;;
15526;SDS011;7865;50.918;4.510;2023-05-20T19:59:42;5.75;;;2.80;;
15526;SDS011;7865;50.918;4.510;2023-05-20T20:04:44;5.57;;;2.33;;
15526;SDS011;7865;50.918;4.510;2023-05-20T20:09:45;4.03;;;2.70;;
15526;SDS011;7865;50.918;4.510;2023-05-20T20:14:48;2.80;;;2.50;;
15526;SDS011;7865;50.918;4.510;2023-05-20T20:19:49;6.28;;;2.42;;
15526;SDS011;7865;50.918;4.510;2023-05-20T20:24:53;3.20;;;2.20;;
15526;SDS011;7865;50.918;4.510;2023-05-20T20:29:54;3.17;;;2.70;;
15526;SDS011;7865;50.918;4.510;2023-05-20T20:34:55;2.30;;;2.10;;
15526;SDS011;7865;50.918;4.510;2023-05-20T20:39:58;3.60;;;2.93;;
15526;SDS011;7865;50.918;4.510;2023-05-20T20:45:05;4.40;;;2.60;;
15526;SDS011;7865;50.918;4.510;2023-05-20T20:50:07;4.00;;;2.70;;
15526;SDS011;7865;50.918;4.510;2023-05-20T20:55:10;3.03;;;2.50;;
15526;SDS011;7865;50.918;4.510;2023-05-20T21:00:11;4.03;;;2.87;;
15526;SDS011;7865;50.918;4.510;2023-05-20T21:05:23;6.53;;;3.37;;
15526;SDS011;7865;50.918;4.510;2023-05-20T21:10:26;5.10;;;2.90;;
15526;SDS011;7865;50.918;4.510;2023-05-20T21:15:29;4.47;;;3.03;;
15526;SDS011;7865;50.918;4.510;2023-05-20T21:20:30;6.27;;;3.33;;
15526;SDS011;7865;50.918;4.510;2023-05-20T21:25:32;3.50;;;2.43;;
15526;SDS011;7865;50.918;4.510;2023-05-20T21:30:33;3.23;;;2.53;;
15526;SDS011;7865;50.918;4.510;2023-05-20T21:35:39;2.60;;;2.40;;
15526;SDS011;7865;50.918;4.510;2023-05-20T21:40:41;4.07;;;2.60;;
15526;SDS011;7865;50.918;4.510;2023-05-20T21:45:42;3.10;;;2.80;;
15526;SDS011;7865;50.918;4.510;2023-05-20T21:50:45;5.77;;;2.93;;
15526;SDS011;7865;50.918;4.510;2023-05-20T21:55:47;6.83;;;2.70;;
15526;SDS011;7865;50.918;4.510;2023-05-20T22:00:48;4.73;;;2.77;;
15526;SDS011;7865;50.918;4.510;2023-05-20T22:05:50;6.17;;;2.70;;
15526;SDS011;7865;50.918;4.510;2023-05-20T22:10:51;3.27;;;2.90;;
15526;SDS011;7865;50.918;4.510;2023-05-20T22:15:52;3.83;;;2.60;;
15526;SDS011;7865;50.918;4.510;2023-05-20T22:20:54;4.73;;;2.63;;
15526;SDS011;7865;50.918;4.510;2023-05-20T22:25:56;3.17;;;2.87;;
15526;SDS011;7865;50.918;4.510;2023-05-20T22:30:57;6.27;;;2.83;;
15526;SDS011;7865;50.918;4.510;2023-05-20T22:36:05;3.87;;;3.00;;
15526;SDS011;7865;50.918;4.510;2023-05-20T22:41:07;4.93;;;2.83;;
15526;SDS011;7865;50.918;4.510;2023-05-20T22:46:09;6.63;;;3.23;;
15526;SDS011;7865;50.918;4.510;2023-05-20T22:51:10;3.03;;;2.50;;
15526;SDS011;7865;50.918;4.510;2023-05-20T22:56:14;9.33;;;3.00;;
15526;SDS011;7865;50.918;4.510;2023-05-20T23:01:16;3.83;;;2.70;;
15526;SDS011;7865;50.918;4.510;2023-05-20T23:06:18;6.63;;;3.20;;
15526;SDS011;7865;50.918;4.510;2023-05-20T23:11:19;4.20;;;2.80;;
15526;SDS011;7865;50.918;4.510;2023-05-20T23:16:21;5.47;;;2.90;;
15526;SDS011;7865;50.918;4.510;2023-05-20T23:21:26;4.30;;;3.33;;
15526;SDS011;7865;50.918;4.510;2023-05-20T23:26:27;3.10;;;2.80;;
15526;SDS011;7865;50.918;4.510;2023-05-20T23:31:29;5.00;;;2.97;;
15526;SDS011;7865;50.918;4.510;2023-05-20T23:36:32;6.63;;;3.13;;
15526;SDS011;7865;50.918;4.510;2023-05-20T23:41:34;5.40;;;2.97;;
15526;SDS011;7865;50.918;4.510;2023-05-20T23:46:36;8.17;;;3.07;;
15526;SDS011;7865;50.918;4.510;2023-05-20T23:51:37;4.23;;;3.17;;
15526;SDS011;7865;50.918;4.510;2023-05-20T23:56:39;4.40;;;3.13;;
